Time,TemperatureF,DewpointF,PressureIn,WindDirection,WindDirectionDegrees,WindSpeedMPH,WindSpeedGustMPH,Humidity,HourlyPrecipIn,Conditions,Clouds,dailyrainin,SoftwareType,DateUTC
2013-10-02 00:12:00,49.0,27.0,29.70,NNE,30,2.0,-999.0,43,-99.99,,,-99.99,,2013-10-02 06:12:00,
2013-10-02 00:21:00,49.0,29.0,29.70,NNE,31,2.0,-999.0,46,-99.99,,,-99.99,,2013-10-02 06:21:00,
2013-10-02 00:42:00,46.0,28.0,29.72,NNE,31,2.0,-999.0,49,-99.99,,,-99.99,,2013-10-02 06:42:00,
2013-10-02 00:52:00,44.0,28.0,29.74,NNE,31,1.0,-999.0,53,-99.99,,,-99.99,,2013-10-02 06:52:00,
2013-10-02 01:11:00,43.0,28.0,29.73,NNE,31,2.0,-999.0,54,-99.99,,,-99.99,,2013-10-02 07:11:00,
2013-10-02 01:21:00,42.0,28.0,29.74,NNE,31,1.0,-999.0,57,-99.99,,,-99.99,,2013-10-02 07:21:00,
2013-10-02 01:42:00,42.0,27.0,29.74,NNE,30,2.0,-999.0,56,-99.99,,,-99.99,,2013-10-02 07:42:00,
2013-10-02 01:52:00,41.0,28.0,29.74,NNE,15,3.0,-999.0,59,-99.99,,,-99.99,,2013-10-02 07:52:00,
2013-10-02 02:11:00,41.0,28.0,29.73,NNE,15,2.0,-999.0,59,-99.99,,,-99.99,,2013-10-02 08:11:00,
2013-10-02 02:21:00,41.0,28.0,29.73,NNE,15,2.0,-999.0,59,-99.99,,,-99.99,,2013-10-02 08:21:00,
2013-10-02 02:52:00,42.0,27.0,29.72,NNE,17,3.0,-999.0,55,-99.99,,,-99.99,,2013-10-02 08:52:00,
2013-10-02 03:11:00,41.0,28.0,29.73,NNE,17,1.0,-999.0,59,-99.99,,,-99.99,,2013-10-02 09:11:00,
2013-10-02 03:21:00,41.0,27.0,29.72,NNE,17,1.0,-999.0,58,-99.99,,,-99.99,,2013-10-02 09:21:00,
2013-10-02 03:43:00,41.0,28.0,29.72,NNE,17,1.0,-999.0,59,-99.99,,,-99.99,,2013-10-02 09:43:00,
2013-10-02 03:54:00,39.0,26.0,29.73,NNE,17,0.0,-999.0,59,-99.99,,,-99.99,,2013-10-02 09:54:00,
2013-10-02 04:12:00,39.0,26.0,29.72,NNE,17,0.0,-999.0,60,-99.99,,,-99.99,,2013-10-02 10:12:00,
2013-10-02 04:23:00,38.0,26.0,29.73,NNE,17,1.0,-999.0,62,-99.99,,,-99.99,,2013-10-02 10:23:00,
2013-10-02 04:42:00,38.0,27.0,29.74,NNE,17,2.0,-999.0,63,-99.99,,,-99.99,,2013-10-02 10:42:00,
2013-10-02 04:52:00,37.0,26.0,29.74,NNE,17,0.0,-999.0,64,-99.99,,,-99.99,,2013-10-02 10:52:00,
2013-10-02 05:12:00,38.0,27.0,29.75,North,1,4.0,-999.0,64,-99.99,,,-99.99,,2013-10-02 11:12:00,
2013-10-02 05:21:00,37.0,26.0,29.75,North,1,4.0,-999.0,65,-99.99,,,-99.99,,2013-10-02 11:21:00,
2013-10-02 05:52:00,37.0,27.0,29.75,North,1,1.0,-999.0,68,-99.99,,,-99.99,,2013-10-02 11:52:00,
2013-10-02 06:11:00,38.0,28.0,29.77,North,1,1.0,-999.0,66,-99.99,,,-99.99,,2013-10-02 12:11:00,
2013-10-02 06:21:00,37.0,26.0,29.77,North,1,0.0,-999.0,64,-99.99,,,-99.99,,2013-10-02 12:21:00,
2013-10-02 06:42:00,36.0,26.0,29.77,North,1,1.0,-999.0,67,-99.99,,,-99.99,,2013-10-02 12:42:00,
2013-10-02 06:52:00,36.0,26.0,29.78,North,1,3.0,-999.0,68,-99.99,,,-99.99,,2013-10-02 12:52:00,
2013-10-02 07:11:00,35.0,26.0,29.83,North,1,1.0,-999.0,69,-99.99,,,-99.99,,2013-10-02 13:11:00,
2013-10-02 07:22:00,35.0,26.0,29.84,North,1,1.0,-999.0,70,-99.99,,,-99.99,,2013-10-02 13:22:00,
2013-10-02 07:52:00,35.0,26.0,29.84,North,1,3.0,-999.0,70,-99.99,,,-99.99,,2013-10-02 13:52:00,
2013-10-02 08:11:00,36.0,26.0,29.90,North,1,2.0,-999.0,68,-99.99,,,-99.99,,2013-10-02 14:11:00,
2013-10-02 08:21:00,40.0,29.0,29.90,North,1,1.0,-999.0,65,-99.99,,,-99.99,,2013-10-02 14:21:00,
2013-10-02 08:42:00,43.0,28.0,29.86,North,1,2.0,-999.0,56,-99.99,,,-99.99,,2013-10-02 14:42:00,
2013-10-02 08:52:00,46.0,30.0,29.86,North,1,1.0,-999.0,53,-99.99,,,-99.99,,2013-10-02 14:52:00,
2013-10-02 09:11:00,48.0,31.0,29.89,North,4,2.0,-999.0,51,-99.99,,,-99.99,,2013-10-02 15:11:00,
2013-10-02 09:21:00,50.0,31.0,29.89,North,4,1.0,-999.0,47,-99.99,,,-99.99,,2013-10-02 15:21:00,
2013-10-02 09:43:00,53.0,32.0,29.88,North,4,1.0,-999.0,44,-99.99,,,-99.99,,2013-10-02 15:43:00,
2013-10-02 09:54:00,56.0,31.0,29.85,NNE,29,0.0,-999.0,39,-99.99,,,-99.99,,2013-10-02 15:54:00,
2013-10-02 10:52:00,64.0,25.0,29.79,ESE,108,2.0,-999.0,23,-99.99,,,-99.99,,2013-10-02 16:52:00,
2013-10-02 11:12:00,65.0,25.0,29.78,SE,127,1.0,-999.0,22,-99.99,,,-99.99,,2013-10-02 17:12:00,
2013-10-02 11:23:00,66.0,24.0,29.78,ESE,110,1.0,-999.0,20,-99.99,,,-99.99,,2013-10-02 17:23:00,
2013-10-02 11:42:00,67.0,27.0,29.77,ESE,122,1.0,-999.0,22,-99.99,,,-99.99,,2013-10-02 17:42:00,
2013-10-02 11:52:00,68.0,27.0,29.76,SSE,165,1.0,-999.0,21,-99.99,,,-99.99,,2013-10-02 17:52:00,
2013-10-02 12:12:00,69.0,27.0,29.79,SSE,168,1.0,-999.0,21,-99.99,,,-99.99,,2013-10-02 18:12:00,
2013-10-02 12:21:00,69.0,27.0,29.77,SSE,164,2.0,-999.0,21,-99.99,,,-99.99,,2013-10-02 18:21:00,
2013-10-02 12:42:00,69.0,25.0,29.77,SSW,207,2.0,-999.0,19,-99.99,,,-99.99,,2013-10-02 18:42:00,
2013-10-02 12:52:00,70.0,29.0,29.77,SSW,193,2.0,-999.0,22,-99.99,,,-99.99,,2013-10-02 18:52:00,
2013-10-02 13:11:00,70.0,25.0,29.78,SSE,151,1.0,-999.0,18,-99.99,,,-99.99,,2013-10-02 19:11:00,
2013-10-02 13:21:00,71.0,25.0,29.76,SE,143,3.0,-999.0,18,-99.99,,,-99.99,,2013-10-02 19:21:00,
2013-10-02 13:42:00,72.0,26.0,29.76,WNW,291,1.0,-999.0,18,-99.99,,,-99.99,,2013-10-02 19:42:00,
2013-10-02 13:52:00,73.0,26.0,29.74,SSE,154,1.0,-999.0,17,-99.99,,,-99.99,,2013-10-02 19:52:00,
2013-10-02 14:11:00,74.0,25.0,29.72,SSE,148,2.0,-999.0,16,-99.99,,,-99.99,,2013-10-02 20:11:00,
2013-10-02 14:22:00,73.0,26.0,29.72,NW,311,3.0,-999.0,17,-99.99,,,-99.99,,2013-10-02 20:22:00,
2013-10-02 14:42:00,74.0,26.0,29.70,ESE,115,2.0,-999.0,17,-99.99,,,-99.99,,2013-10-02 20:42:00,
2013-10-02 14:52:00,74.0,22.0,29.70,West,280,3.0,-999.0,14,-99.99,,,-99.99,,2013-10-02 20:52:00,
2013-10-02 15:11:00,74.0,22.0,29.70,South,184,1.0,-999.0,14,-99.99,,,-99.99,,2013-10-02 21:11:00,
2013-10-02 15:22:00,74.0,20.0,29.70,WNW,293,3.0,-999.0,13,-99.99,,,-99.99,,2013-10-02 21:22:00,
2013-10-02 15:44:00,75.0,21.0,29.70,SW,234,5.0,-999.0,13,-99.99,,,-99.99,,2013-10-02 21:44:00,
2013-10-02 15:54:00,75.0,21.0,29.70,SSW,193,3.0,-999.0,13,-99.99,,,-99.99,,2013-10-02 21:54:00,
2013-10-02 16:13:00,74.0,18.0,29.70,SW,234,2.0,-999.0,12,-99.99,,,-99.99,,2013-10-02 22:13:00,
2013-10-02 16:23:00,75.0,21.0,29.68,WSW,242,3.0,-999.0,13,-99.99,,,-99.99,,2013-10-02 22:23:00,
2013-10-02 16:44:00,75.0,21.0,29.68,SW,218,3.0,-999.0,13,-99.99,,,-99.99,,2013-10-02 22:44:00,
2013-10-02 16:53:00,75.0,23.0,29.68,SW,226,5.0,-999.0,14,-99.99,,,-99.99,,2013-10-02 22:53:00,
2013-10-02 17:12:00,75.0,23.0,29.67,WSW,244,4.0,-999.0,14,-99.99,,,-99.99,,2013-10-02 23:12:00,
2013-10-02 17:22:00,75.0,23.0,29.67,SW,217,5.0,-999.0,14,-99.99,,,-99.99,,2013-10-02 23:22:00,
2013-10-02 17:42:00,75.0,23.0,29.67,SSW,211,1.0,-999.0,14,-99.99,,,-99.99,,2013-10-02 23:42:00,
2013-10-02 17:52:00,75.0,23.0,29.67,SSW,211,1.0,-999.0,14,-99.99,,,-99.99,,2013-10-02 23:52:00,
2013-10-02 18:12:00,74.0,23.0,29.67,West,274,4.0,-999.0,15,-99.99,,,-99.99,,2013-10-03 00:12:00,
2013-10-02 18:22:00,74.0,25.0,29.68,SSW,212,1.0,-999.0,16,-99.99,,,-99.99,,2013-10-03 00:22:00,
2013-10-02 18:32:00,74.0,25.0,29.68,SSW,212,1.0,-999.0,16,-99.99,,,-99.99,,2013-10-03 00:32:00,
2013-10-02 18:42:00,74.0,25.0,29.68,SSW,212,1.0,-999.0,16,-99.99,,,-99.99,,2013-10-03 00:42:00,
2013-10-02 18:52:00,71.0,23.0,29.70,West,274,2.0,-999.0,16,-99.99,,,-99.99,,2013-10-03 00:52:00,
2013-10-02 19:11:00,69.0,24.0,29.70,West,274,0.0,-999.0,18,-99.99,,,-99.99,,2013-10-03 01:11:00,
2013-10-02 19:22:00,69.0,24.0,29.70,West,274,0.0,-999.0,18,-99.99,,,-99.99,,2013-10-03 01:22:00,
2013-10-02 19:42:00,66.0,24.0,29.72,West,274,0.0,-999.0,20,-99.99,,,-99.99,,2013-10-03 01:42:00,
2013-10-02 20:22:00,59.0,26.0,29.72,West,274,0.0,-999.0,28,-99.99,,,-99.99,,2013-10-03 02:22:00,
2013-10-02 21:54:00,51.0,27.0,29.67,North,359,1.0,-999.0,39,-99.99,,,-99.99,,2013-10-03 03:54:00,
2013-10-02 22:13:00,51.0,29.0,29.67,North,359,2.0,-999.0,43,-99.99,,,-99.99,,2013-10-03 04:13:00,
2013-10-02 22:24:00,51.0,29.0,29.67,North,359,2.0,-999.0,43,-99.99,,,-99.99,,2013-10-03 04:24:00,
2013-10-02 22:43:00,51.0,28.0,29.67,North,6,2.0,-999.0,40,-99.99,,,-99.99,,2013-10-03 04:43:00,
2013-10-02 22:53:00,50.0,26.0,29.67,NNE,21,3.0,-999.0,39,-99.99,,,-99.99,,2013-10-03 04:53:00,
2013-10-02 23:13:00,50.0,27.0,29.65,NE,50,3.0,-999.0,40,-99.99,,,-99.99,,2013-10-03 05:13:00,
2013-10-02 23:23:00,49.0,26.0,29.66,NE,44,2.0,-999.0,40,-99.99,,,-99.99,,2013-10-03 05:23:00,
2013-10-02 23:43:00,50.0,26.0,29.66,NE,44,1.0,-999.0,39,-99.99,,,-99.99,,2013-10-03 05:43:00,
2013-10-02 23:52:00,49.0,27.0,29.66,NE,44,1.0,-999.0,42,-99.99,,,-99.99,,2013-10-03 05:52:00,